sensor_id;sensor_type;location;lat;lon;timestamp;temperature;humidity
42097;DHT22;27754;45.414;11.084;2023-03-01T00:01:06;6.60;60.80
42097;DHT22;27754;45.414;11.084;2023-03-01T00:03:33;6.50;61.00
42097;DHT22;27754;45.414;11.084;2023-03-01T00:06:01;6.50;61.00
42097;DHT22;27754;45.414;11.084;2023-03-01T00:08:28;6.50;60.90
42097;DHT22;27754;45.414;11.084;2023-03-01T00:11:24;6.40;60.90
42097;DHT22;27754;45.414;11.084;2023-03-01T00:13:54;6.40;61.00
42097;DHT22;27754;45.414;11.084;2023-03-01T00:16:29;6.40;61.30
42097;DHT22;27754;45.414;11.084;2023-03-01T00:18:57;6.20;61.60
42097;DHT22;27754;45.414;11.084;2023-03-01T00:21:25;6.20;61.90
42097;DHT22;27754;45.414;11.084;2023-03-01T00:23:53;6.20;61.80
42097;DHT22;27754;45.414;11.084;2023-03-01T00:26:21;6.10;62.00
42097;DHT22;27754;45.414;11.084;2023-03-01T00:28:49;6.10;62.20
42097;DHT22;27754;45.414;11.084;2023-03-01T00:31:22;6.00;62.40
42097;DHT22;27754;45.414;11.084;2023-03-01T00:33:56;6.00;62.60
42097;DHT22;27754;45.414;11.084;2023-03-01T00:36:25;5.90;62.80
42097;DHT22;27754;45.414;11.084;2023-03-01T00:38:53;5.90;62.80
42097;DHT22;27754;45.414;11.084;2023-03-01T00:41:20;5.90;62.70
42097;DHT22;27754;45.414;11.084;2023-03-01T00:43:50;5.90;63.00
42097;DHT22;27754;45.414;11.084;2023-03-01T00:46:20;5.90;63.00
42097;DHT22;27754;45.414;11.084;2023-03-01T00:48:48;5.90;63.20
42097;DHT22;27754;45.414;11.084;2023-03-01T00:51:21;5.90;63.20
42097;DHT22;27754;45.414;11.084;2023-03-01T00:53:53;5.70;63.30
42097;DHT22;27754;45.414;11.084;2023-03-01T00:56:21;5.80;63.30
42097;DHT22;27754;45.414;11.084;2023-03-01T00:58:48;5.70;63.50
42097;DHT22;27754;45.414;11.084;2023-03-01T01:01:18;5.70;63.50
42097;DHT22;27754;45.414;11.084;2023-03-01T01:03:49;5.60;63.70
42097;DHT22;27754;45.414;11.084;2023-03-01T01:06:26;5.60;63.80
42097;DHT22;27754;45.414;11.084;2023-03-01T01:08:54;5.60;63.70
42097;DHT22;27754;45.414;11.084;2023-03-01T01:11:24;5.50;64.10
42097;DHT22;27754;45.414;11.084;2023-03-01T01:13:52;5.40;64.30
42097;DHT22;27754;45.414;11.084;2023-03-01T01:16:22;5.40;64.30
42097;DHT22;27754;45.414;11.084;2023-03-01T01:18:50;5.50;64.40
42097;DHT22;27754;45.414;11.084;2023-03-01T01:21:19;5.40;64.50
42097;DHT22;27754;45.414;11.084;2023-03-01T01:23:46;5.50;64.20
42097;DHT22;27754;45.414;11.084;2023-03-01T01:26:17;5.50;64.20
42097;DHT22;27754;45.414;11.084;2023-03-01T01:28:44;5.40;64.30
42097;DHT22;27754;45.414;11.084;2023-03-01T01:31:11;5.40;64.50
42097;DHT22;27754;45.414;11.084;2023-03-01T01:33:38;5.40;64.70
42097;DHT22;27754;45.414;11.084;2023-03-01T01:36:06;5.40;64.90
42097;DHT22;27754;45.414;11.084;2023-03-01T01:38:34;5.40;64.90
42097;DHT22;27754;45.414;11.084;2023-03-01T01:41:02;5.40;64.60
42097;DHT22;27754;45.414;11.084;2023-03-01T01:43:33;5.40;64.60
42097;DHT22;27754;45.414;11.084;2023-03-01T01:48:41;5.40;64.50
42097;DHT22;27754;45.414;11.084;2023-03-01T01:51:13;5.40;64.40
42097;DHT22;27754;45.414;11.084;2023-03-01T01:53:43;5.40;64.70
42097;DHT22;27754;45.414;11.084;2023-03-01T01:56:12;5.40;64.90
42097;DHT22;27754;45.414;11.084;2023-03-01T01:58:41;5.40;64.70
42097;DHT22;27754;45.414;11.084;2023-03-01T02:01:09;5.30;64.80
42097;DHT22;27754;45.414;11.084;2023-03-01T02:03:39;5.10;65.50
42097;DHT22;27754;45.414;11.084;2023-03-01T02:06:18;4.90;66.00
42097;DHT22;27754;45.414;11.084;2023-03-01T02:08:48;4.80;66.40
42097;DHT22;27754;45.414;11.084;2023-03-01T02:11:17;4.80;66.90
42097;DHT22;27754;45.414;11.084;2023-03-01T02:13:47;4.60;68.30
42097;DHT22;27754;45.414;11.084;2023-03-01T02:16:16;4.30;70.00
42097;DHT22;27754;45.414;11.084;2023-03-01T02:18:43;4.10;70.50
42097;DHT22;27754;45.414;11.084;2023-03-01T02:21:23;3.90;71.30
42097;DHT22;27754;45.414;11.084;2023-03-01T02:23:54;3.70;71.90
42097;DHT22;27754;45.414;11.084;2023-03-01T02:28:58;3.60;72.30
42097;DHT22;27754;45.414;11.084;2023-03-01T02:31:25;3.50;72.60
42097;DHT22;27754;45.414;11.084;2023-03-01T02:34:16;3.50;72.70
42097;DHT22;27754;45.414;11.084;2023-03-01T02:36:49;3.50;72.70
42097;DHT22;27754;45.414;11.084;2023-03-01T02:39:23;3.50;72.50
42097;DHT22;27754;45.414;11.084;2023-03-01T02:41:53;3.40;72.90
42097;DHT22;27754;45.414;11.084;2023-03-01T02:44:21;3.30;73.60
42097;DHT22;27754;45.414;11.084;2023-03-01T02:46:52;3.30;74.10
42097;DHT22;27754;45.414;11.084;2023-03-01T02:49:30;3.20;74.20
42097;DHT22;27754;45.414;11.084;2023-03-01T02:52:28;3.20;74.40
42097;DHT22;27754;45.414;11.084;2023-03-01T02:55:06;3.20;74.10
42097;DHT22;27754;45.414;11.084;2023-03-01T02:57:37;3.20;74.30
42097;DHT22;27754;45.414;11.084;2023-03-01T03:00:28;3.30;74.90
42097;DHT22;27754;45.414;11.084;2023-03-01T03:02:55;3.30;74.50
42097;DHT22;27754;45.414;11.084;2023-03-01T03:05:27;3.30;74.00
42097;DHT22;27754;45.414;11.084;2023-03-01T03:07:57;3.40;73.70
42097;DHT22;27754;45.414;11.084;2023-03-01T03:10:28;3.30;73.90
42097;DHT22;27754;45.414;11.084;2023-03-01T03:12:59;3.40;73.80
42097;DHT22;27754;45.414;11.084;2023-03-01T03:15:27;3.30;73.90
42097;DHT22;27754;45.414;11.084;2023-03-01T03:17:57;3.40;73.60
42097;DHT22;27754;45.414;11.084;2023-03-01T03:20:26;3.50;73.10
42097;DHT22;27754;45.414;11.084;2023-03-01T03:22:55;3.60;72.90
42097;DHT22;27754;45.414;11.084;2023-03-01T03:25:23;3.60;72.80
42097;DHT22;27754;45.414;11.084;2023-03-01T03:27:50;3.70;72.40
42097;DHT22;27754;45.414;11.084;2023-03-01T03:30:31;3.70;72.30
42097;DHT22;27754;45.414;11.084;2023-03-01T03:32:59;3.70;72.40
42097;DHT22;27754;45.414;11.084;2023-03-01T03:35:31;3.60;72.70
42097;DHT22;27754;45.414;11.084;2023-03-01T03:38:00;3.50;73.50
42097;DHT22;27754;45.414;11.084;2023-03-01T03:40:40;3.50;74.20
42097;DHT22;27754;45.414;11.084;2023-03-01T03:43:09;3.50;74.40
42097;DHT22;27754;45.414;11.084;2023-03-01T03:45:36;3.60;74.50
42097;DHT22;27754;45.414;11.084;2023-03-01T03:48:06;3.60;74.60
42097;DHT22;27754;45.414;11.084;2023-03-01T03:50:34;3.70;74.40
42097;DHT22;27754;45.414;11.084;2023-03-01T03:53:03;3.70;74.10
42097;DHT22;27754;45.414;11.084;2023-03-01T03:55:30;3.70;73.90
42097;DHT22;27754;45.414;11.084;2023-03-01T03:57:58;3.70;73.90
42097;DHT22;27754;45.414;11.084;2023-03-01T04:00:28;3.70;73.60
42097;DHT22;27754;45.414;11.084;2023-03-01T04:02:55;3.70;73.70
42097;DHT22;27754;45.414;11.084;2023-03-01T04:05:23;3.70;74.20
42097;DHT22;27754;45.414;11.084;2023-03-01T04:07:50;3.70;74.00
42097;DHT22;27754;45.414;11.084;2023-03-01T04:10:29;3.80;73.90
42097;DHT22;27754;45.414;11.084;2023-03-01T04:12:57;3.80;73.80
42097;DHT22;27754;45.414;11.084;2023-03-01T04:15:25;3.80;74.00
42097;DHT22;27754;45.414;11.084;2023-03-01T04:17:54;3.90;73.80
42097;DHT22;27754;45.414;11.084;2023-03-01T04:20:23;3.90;73.90
42097;DHT22;27754;45.414;11.084;2023-03-01T04:28:09;3.90;74.60
42097;DHT22;27754;45.414;11.084;2023-03-01T04:30:37;3.90;74.70
42097;DHT22;27754;45.414;11.084;2023-03-01T04:33:06;3.90;74.60
42097;DHT22;27754;45.414;11.084;2023-03-01T04:35:35;3.90;74.80
42097;DHT22;27754;45.414;11.084;2023-03-01T04:38:04;3.90;74.80
42097;DHT22;27754;45.414;11.084;2023-03-01T04:40:32;3.90;75.00
42097;DHT22;27754;45.414;11.084;2023-03-01T04:42:59;3.90;75.20
42097;DHT22;27754;45.414;11.084;2023-03-01T04:45:26;3.90;75.20
42097;DHT22;27754;45.414;11.084;2023-03-01T04:47:54;3.90;74.60
42097;DHT22;27754;45.414;11.084;2023-03-01T04:50:21;4.00;74.60
42097;DHT22;27754;45.414;11.084;2023-03-01T04:52:50;4.00;74.40
42097;DHT22;27754;45.414;11.084;2023-03-01T04:55:17;4.00;74.60
42097;DHT22;27754;45.414;11.084;2023-03-01T04:57:44;3.90;75.00
42097;DHT22;27754;45.414;11.084;2023-03-01T05:00:13;3.90;75.20
42097;DHT22;27754;45.414;11.084;2023-03-01T05:02:55;4.00;75.30
42097;DHT22;27754;45.414;11.084;2023-03-01T05:05:24;4.00;75.10
42097;DHT22;27754;45.414;11.084;2023-03-01T05:08:00;3.90;75.50
42097;DHT22;27754;45.414;11.084;2023-03-01T05:10:29;4.00;75.50
42097;DHT22;27754;45.414;11.084;2023-03-01T05:12:58;3.90;75.90
42097;DHT22;27754;45.414;11.084;2023-03-01T05:15:26;4.00;76.10
42097;DHT22;27754;45.414;11.084;2023-03-01T05:17:55;4.00;75.90
42097;DHT22;27754;45.414;11.084;2023-03-01T05:20:29;4.00;76.00
42097;DHT22;27754;45.414;11.084;2023-03-01T05:22:58;4.00;76.00
42097;DHT22;27754;45.414;11.084;2023-03-01T05:25:26;4.10;75.80
42097;DHT22;27754;45.414;11.084;2023-03-01T05:27:53;4.10;76.00
42097;DHT22;27754;45.414;11.084;2023-03-01T05:30:20;4.00;76.20
42097;DHT22;27754;45.414;11.084;2023-03-01T05:32:50;4.00;76.10
42097;DHT22;27754;45.414;11.084;2023-03-01T05:35:23;4.00;76.20
42097;DHT22;27754;45.414;11.084;2023-03-01T05:37:50;4.20;75.30
42097;DHT22;27754;45.414;11.084;2023-03-01T05:40:22;4.20;75.20
42097;DHT22;27754;45.414;11.084;2023-03-01T05:42:55;4.30;75.50
42097;DHT22;27754;45.414;11.084;2023-03-01T05:45:24;4.30;75.80
42097;DHT22;27754;45.414;11.084;2023-03-01T05:47:52;4.30;75.80
42097;DHT22;27754;45.414;11.084;2023-03-01T05:50:25;4.40;75.20
42097;DHT22;27754;45.414;11.084;2023-03-01T05:52:58;4.40;75.30
42097;DHT22;27754;45.414;11.084;2023-03-01T05:55:26;4.30;75.60
42097;DHT22;27754;45.414;11.084;2023-03-01T05:57:55;4.30;75.90
42097;DHT22;27754;45.414;11.084;2023-03-01T06:00:22;4.40;76.00
42097;DHT22;27754;45.414;11.084;2023-03-01T06:02:49;4.40;75.70
42097;DHT22;27754;45.414;11.084;2023-03-01T06:05:17;4.40;75.70
42097;DHT22;27754;45.414;11.084;2023-03-01T06:07:44;4.40;75.80
42097;DHT22;27754;45.414;11.084;2023-03-01T06:10:12;4.40;75.90
42097;DHT22;27754;45.414;11.084;2023-03-01T06:12:40;4.40;76.00
42097;DHT22;27754;45.414;11.084;2023-03-01T06:15:09;4.50;75.80
42097;DHT22;27754;45.414;11.084;2023-03-01T06:17:38;4.60;74.90
42097;DHT22;27754;45.414;11.084;2023-03-01T06:22:42;4.70;74.30
42097;DHT22;27754;45.414;11.084;2023-03-01T06:25:11;4.70;74.30
42097;DHT22;27754;45.414;11.084;2023-03-01T06:27:40;4.90;74.40
42097;DHT22;27754;45.414;11.084;2023-03-01T06:30:09;4.90;74.90
42097;DHT22;27754;45.414;11.084;2023-03-01T06:32:38;4.90;74.20
42097;DHT22;27754;45.414;11.084;2023-03-01T06:35:12;4.90;73.70
42097;DHT22;27754;45.414;11.084;2023-03-01T06:37:40;4.90;73.70
42097;DHT22;27754;45.414;11.084;2023-03-01T06:40:08;5.10;73.80
42097;DHT22;27754;45.414;11.084;2023-03-01T06:42:36;5.00;73.50
42097;DHT22;27754;45.414;11.084;2023-03-01T06:45:04;5.10;73.50
42097;DHT22;27754;45.414;11.084;2023-03-01T06:47:33;5.20;73.40
42097;DHT22;27754;45.414;11.084;2023-03-01T06:50:01;5.30;73.20
42097;DHT22;27754;45.414;11.084;2023-03-01T06:52:28;5.30;72.60
42097;DHT22;27754;45.414;11.084;2023-03-01T06:54:56;5.40;72.50
42097;DHT22;27754;45.414;11.084;2023-03-01T06:57:23;5.40;72.70
42097;DHT22;27754;45.414;11.084;2023-03-01T06:59:50;5.40;72.90
42097;DHT22;27754;45.414;11.084;2023-03-01T07:02:17;5.50;73.00
42097;DHT22;27754;45.414;11.084;2023-03-01T07:04:44;5.60;72.90
42097;DHT22;27754;45.414;11.084;2023-03-01T07:07:11;5.70;72.60
42097;DHT22;27754;45.414;11.084;2023-03-01T07:09:38;5.70;72.40
42097;DHT22;27754;45.414;11.084;2023-03-01T07:12:05;5.80;72.30
42097;DHT22;27754;45.414;11.084;2023-03-01T07:14:33;5.80;72.20
42097;DHT22;27754;45.414;11.084;2023-03-01T07:17:00;5.90;72.00
42097;DHT22;27754;45.414;11.084;2023-03-01T07:19:27;5.90;72.00
42097;DHT22;27754;45.414;11.084;2023-03-01T07:21:54;6.00;72.00
42097;DHT22;27754;45.414;11.084;2023-03-01T07:24:22;6.10;72.00
42097;DHT22;27754;45.414;11.084;2023-03-01T07:26:50;6.10;72.40
42097;DHT22;27754;45.414;11.084;2023-03-01T07:29:18;6.20;72.10
42097;DHT22;27754;45.414;11.084;2023-03-01T07:31:45;6.20;72.10
42097;DHT22;27754;45.414;11.084;2023-03-01T07:34:12;6.30;72.40
42097;DHT22;27754;45.414;11.084;2023-03-01T07:36:39;6.30;72.30
42097;DHT22;27754;45.414;11.084;2023-03-01T07:39:10;6.40;72.70
42097;DHT22;27754;45.414;11.084;2023-03-01T07:41:37;6.40;72.90
42097;DHT22;27754;45.414;11.084;2023-03-01T07:44:04;6.40;73.00
42097;DHT22;27754;45.414;11.084;2023-03-01T07:46:32;6.60;73.20
42097;DHT22;27754;45.414;11.084;2023-03-01T07:48:59;6.80;73.10
42097;DHT22;27754;45.414;11.084;2023-03-01T07:51:26;6.90;73.10
42097;DHT22;27754;45.414;11.084;2023-03-01T07:53:53;6.90;72.70
42097;DHT22;27754;45.414;11.084;2023-03-01T07:56:20;6.90;72.50
42097;DHT22;27754;45.414;11.084;2023-03-01T07:58:48;7.00;72.70
42097;DHT22;27754;45.414;11.084;2023-03-01T08:01:19;7.10;72.80
42097;DHT22;27754;45.414;11.084;2023-03-01T08:03:46;7.10;72.30
42097;DHT22;27754;45.414;11.084;2023-03-01T08:06:15;7.30;72.40
42097;DHT22;27754;45.414;11.084;2023-03-01T08:08:42;7.40;72.10
42097;DHT22;27754;45.414;11.084;2023-03-01T08:11:11;7.40;72.30
42097;DHT22;27754;45.414;11.084;2023-03-01T08:13:38;7.40;71.40
42097;DHT22;27754;45.414;11.084;2023-03-01T08:16:11;7.50;71.10
42097;DHT22;27754;45.414;11.084;2023-03-01T08:18:39;7.50;71.00
42097;DHT22;27754;45.414;11.084;2023-03-01T08:21:11;7.60;70.80
42097;DHT22;27754;45.414;11.084;2023-03-01T08:23:39;7.60;70.50
42097;DHT22;27754;45.414;11.084;2023-03-01T08:26:12;7.70;70.00
42097;DHT22;27754;45.414;11.084;2023-03-01T08:28:40;7.80;69.90
42097;DHT22;27754;45.414;11.084;2023-03-01T08:31:38;7.70;68.80
42097;DHT22;27754;45.414;11.084;2023-03-01T08:34:09;7.80;69.20
42097;DHT22;27754;45.414;11.084;2023-03-01T08:36:39;7.60;68.40
42097;DHT22;27754;45.414;11.084;2023-03-01T08:39:08;7.60;68.60
42097;DHT22;27754;45.414;11.084;2023-03-01T08:41:35;7.60;68.00
42097;DHT22;27754;45.414;11.084;2023-03-01T08:44:04;7.70;68.70
42097;DHT22;27754;45.414;11.084;2023-03-01T08:46:41;7.60;68.10
42097;DHT22;27754;45.414;11.084;2023-03-01T08:49:13;7.70;67.50
42097;DHT22;27754;45.414;11.084;2023-03-01T08:51:41;7.80;67.80
42097;DHT22;27754;45.414;11.084;2023-03-01T08:54:16;7.80;67.40
42097;DHT22;27754;45.414;11.084;2023-03-01T08:56:43;7.80;67.10
42097;DHT22;27754;45.414;11.084;2023-03-01T08:59:11;7.90;66.90
42097;DHT22;27754;45.414;11.084;2023-03-01T09:01:39;7.90;66.50
42097;DHT22;27754;45.414;11.084;2023-03-01T09:04:06;7.90;65.60
42097;DHT22;27754;45.414;11.084;2023-03-01T09:06:34;7.90;65.70
42097;DHT22;27754;45.414;11.084;2023-03-01T09:09:02;8.10;66.00
42097;DHT22;27754;45.414;11.084;2023-03-01T09:11:29;8.10;65.80
42097;DHT22;27754;45.414;11.084;2023-03-01T09:13:57;8.10;65.80
42097;DHT22;27754;45.414;11.084;2023-03-01T09:16:24;8.20;66.10
42097;DHT22;27754;45.414;11.084;2023-03-01T09:18:52;8.30;65.00
42097;DHT22;27754;45.414;11.084;2023-03-01T09:21:21;8.30;65.00
42097;DHT22;27754;45.414;11.084;2023-03-01T09:24:05;8.30;64.80
42097;DHT22;27754;45.414;11.084;2023-03-01T09:26:32;8.40;65.40
42097;DHT22;27754;45.414;11.084;2023-03-01T09:29:00;8.40;65.70
42097;DHT22;27754;45.414;11.084;2023-03-01T09:31:26;8.40;65.80
42097;DHT22;27754;45.414;11.084;2023-03-01T09:33:53;8.40;66.30
42097;DHT22;27754;45.414;11.084;2023-03-01T09:36:23;8.50;66.00
42097;DHT22;27754;45.414;11.084;2023-03-01T09:38:52;8.60;66.00
42097;DHT22;27754;45.414;11.084;2023-03-01T09:44:51;8.80;65.90
42097;DHT22;27754;45.414;11.084;2023-03-01T09:47:21;8.80;65.50
42097;DHT22;27754;45.414;11.084;2023-03-01T09:50:12;8.90;65.80
42097;DHT22;27754;45.414;11.084;2023-03-01T09:53:00;8.90;65.60
42097;DHT22;27754;45.414;11.084;2023-03-01T09:58:31;9.00;65.10
42097;DHT22;27754;45.414;11.084;2023-03-01T10:06:50;9.10;62.70
42097;DHT22;27754;45.414;11.084;2023-03-01T10:09:19;9.10;62.90
42097;DHT22;27754;45.414;11.084;2023-03-01T10:11:50;9.20;61.60
42097;DHT22;27754;45.414;11.084;2023-03-01T10:17:27;9.20;61.00
42097;DHT22;27754;45.414;11.084;2023-03-01T10:19:52;9.10;61.00
42097;DHT22;27754;45.414;11.084;2023-03-01T10:22:27;9.20;61.20
42097;DHT22;27754;45.414;11.084;2023-03-01T10:24:57;9.30;61.20
42097;DHT22;27754;45.414;11.084;2023-03-01T10:27:29;9.30;62.10
42097;DHT22;27754;45.414;11.084;2023-03-01T10:30:16;9.50;61.80
42097;DHT22;27754;45.414;11.084;2023-03-01T10:32:48;9.50;62.60
42097;DHT22;27754;45.414;11.084;2023-03-01T10:35:22;9.60;62.70
42097;DHT22;27754;45.414;11.084;2023-03-01T10:38:06;9.60;62.70
42097;DHT22;27754;45.414;11.084;2023-03-01T10:40:39;9.60;62.60
42097;DHT22;27754;45.414;11.084;2023-03-01T10:43:16;9.80;62.10
42097;DHT22;27754;45.414;11.084;2023-03-01T10:45:44;9.80;61.80
42097;DHT22;27754;45.414;11.084;2023-03-01T10:48:18;9.90;62.20
42097;DHT22;27754;45.414;11.084;2023-03-01T10:50:48;9.90;61.60
42097;DHT22;27754;45.414;11.084;2023-03-01T10:53:32;10.00;61.70
42097;DHT22;27754;45.414;11.084;2023-03-01T10:56:05;10.10;61.00
42097;DHT22;27754;45.414;11.084;2023-03-01T10:58:34;10.20;60.80
42097;DHT22;27754;45.414;11.084;2023-03-01T11:03:42;10.50;59.70
42097;DHT22;27754;45.414;11.084;2023-03-01T11:11:32;10.40;57.30
42097;DHT22;27754;45.414;11.084;2023-03-01T11:14:16;10.40;58.00
42097;DHT22;27754;45.414;11.084;2023-03-01T11:19:27;10.40;58.40
42097;DHT22;27754;45.414;11.084;2023-03-01T11:22:05;10.40;58.60
42097;DHT22;27754;45.414;11.084;2023-03-01T11:27:07;10.40;57.60
42097;DHT22;27754;45.414;11.084;2023-03-01T11:29:41;10.30;56.90
42097;DHT22;27754;45.414;11.084;2023-03-01T11:32:15;10.20;56.70
42097;DHT22;27754;45.414;11.084;2023-03-01T11:34:57;10.20;56.20
42097;DHT22;27754;45.414;11.084;2023-03-01T11:40:25;10.10;57.40
42097;DHT22;27754;45.414;11.084;2023-03-01T11:43:19;10.10;57.90
42097;DHT22;27754;45.414;11.084;2023-03-01T11:45:53;10.10;58.60
42097;DHT22;27754;45.414;11.084;2023-03-01T11:57:32;10.10;64.30
42097;DHT22;27754;45.414;11.084;2023-03-01T12:00:34;10.10;65.30
42097;DHT22;27754;45.414;11.084;2023-03-01T12:06:18;10.30;64.10
42097;DHT22;27754;45.414;11.084;2023-03-01T12:09:06;10.20;63.70
42097;DHT22;27754;45.414;11.084;2023-03-01T12:11:52;10.20;64.80
42097;DHT22;27754;45.414;11.084;2023-03-01T12:17:47;10.00;63.60
42097;DHT22;27754;45.414;11.084;2023-03-01T12:20:50;9.90;64.70
42097;DHT22;27754;45.414;11.084;2023-03-01T12:26:14;9.70;66.50
42097;DHT22;27754;45.414;11.084;2023-03-01T12:29:24;9.70;67.40
42097;DHT22;27754;45.414;11.084;2023-03-01T12:32:13;9.80;67.40
42097;DHT22;27754;45.414;11.084;2023-03-01T12:35:03;9.70;67.10
42097;DHT22;27754;45.414;11.084;2023-03-01T12:40:53;9.60;67.50
42097;DHT22;27754;45.414;11.084;2023-03-01T12:46:55;9.70;67.70
42097;DHT22;27754;45.414;11.084;2023-03-01T12:49:20;9.70;68.40
42097;DHT22;27754;45.414;11.084;2023-03-01T12:52:03;9.60;67.00
42097;DHT22;27754;45.414;11.084;2023-03-01T12:54:36;9.70;67.70
42097;DHT22;27754;45.414;11.084;2023-03-01T12:57:14;9.70;66.00
42097;DHT22;27754;45.414;11.084;2023-03-01T13:02:26;9.80;67.00
42097;DHT22;27754;45.414;11.084;2023-03-01T13:13:24;10.10;66.20
42097;DHT22;27754;45.414;11.084;2023-03-01T13:15:52;10.00;64.90
42097;DHT22;27754;45.414;11.084;2023-03-01T13:20:58;10.10;64.80
42097;DHT22;27754;45.414;11.084;2023-03-01T13:23:31;10.00;63.90
42097;DHT22;27754;45.414;11.084;2023-03-01T13:26:05;9.90;63.80
42097;DHT22;27754;45.414;11.084;2023-03-01T13:33:59;9.90;66.20
42097;DHT22;27754;45.414;11.084;2023-03-01T13:44:32;9.40;67.40
42097;DHT22;27754;45.414;11.084;2023-03-01T13:52:44;9.40;67.90
42097;DHT22;27754;45.414;11.084;2023-03-01T13:57:48;9.50;66.50
42097;DHT22;27754;45.414;11.084;2023-03-01T14:03:15;9.10;69.80
42097;DHT22;27754;45.414;11.084;2023-03-01T14:06:07;8.90;70.70
42097;DHT22;27754;45.414;11.084;2023-03-01T14:08:49;8.90;72.10
42097;DHT22;27754;45.414;11.084;2023-03-01T14:19:46;8.60;74.00
42097;DHT22;27754;45.414;11.084;2023-03-01T14:22:29;8.50;74.20
42097;DHT22;27754;45.414;11.084;2023-03-01T14:25:05;8.40;75.30
42097;DHT22;27754;45.414;11.084;2023-03-01T14:27:38;8.40;76.20
42097;DHT22;27754;45.414;11.084;2023-03-01T14:30:19;8.30;76.70
42097;DHT22;27754;45.414;11.084;2023-03-01T14:33:29;8.10;76.90
42097;DHT22;27754;45.414;11.084;2023-03-01T14:36:03;8.10;78.60
42097;DHT22;27754;45.414;11.084;2023-03-01T14:38:33;8.20;77.80
42097;DHT22;27754;45.414;11.084;2023-03-01T14:41:24;8.20;77.40
42097;DHT22;27754;45.414;11.084;2023-03-01T14:44:02;8.20;77.80
42097;DHT22;27754;45.414;11.084;2023-03-01T14:46:35;8.20;78.20
42097;DHT22;27754;45.414;11.084;2023-03-01T14:49:23;8.20;77.00
42097;DHT22;27754;45.414;11.084;2023-03-01T14:51:58;8.20;76.70
42097;DHT22;27754;45.414;11.084;2023-03-01T14:54:34;8.20;78.30
42097;DHT22;27754;45.414;11.084;2023-03-01T14:57:04;8.20;76.70
42097;DHT22;27754;45.414;11.084;2023-03-01T14:59:33;8.20;77.60
42097;DHT22;27754;45.414;11.084;2023-03-01T15:02:00;8.20;77.50
42097;DHT22;27754;45.414;11.084;2023-03-01T15:04:28;8.10;77.20
42097;DHT22;27754;45.414;11.084;2023-03-01T15:06:57;8.20;77.70
42097;DHT22;27754;45.414;11.084;2023-03-01T15:09:34;8.20;77.30
42097;DHT22;27754;45.414;11.084;2023-03-01T15:14:57;8.20;77.90
42097;DHT22;27754;45.414;11.084;2023-03-01T15:17:33;8.20;79.60
42097;DHT22;27754;45.414;11.084;2023-03-01T15:20:18;8.10;80.50
42097;DHT22;27754;45.414;11.084;2023-03-01T15:22:48;8.10;80.80
42097;DHT22;27754;45.414;11.084;2023-03-01T15:25:19;8.10;81.20
42097;DHT22;27754;45.414;11.084;2023-03-01T15:27:50;8.10;81.30
42097;DHT22;27754;45.414;11.084;2023-03-01T15:30:30;8.10;81.50
42097;DHT22;27754;45.414;11.084;2023-03-01T15:33:28;8.00;81.60
42097;DHT22;27754;45.414;11.084;2023-03-01T15:35:57;8.00;82.30
42097;DHT22;27754;45.414;11.084;2023-03-01T15:38:27;8.00;82.80
42097;DHT22;27754;45.414;11.084;2023-03-01T15:40:55;7.90;83.20
42097;DHT22;27754;45.414;11.084;2023-03-01T15:43:42;7.90;83.60
42097;DHT22;27754;45.414;11.084;2023-03-01T15:48:48;7.90;83.40
42097;DHT22;27754;45.414;11.084;2023-03-01T15:51:26;7.90;83.80
42097;DHT22;27754;45.414;11.084;2023-03-01T15:53:54;7.90;83.90
42097;DHT22;27754;45.414;11.084;2023-03-01T15:56:22;7.90;84.20
42097;DHT22;27754;45.414;11.084;2023-03-01T15:58:49;7.90;84.30
42097;DHT22;27754;45.414;11.084;2023-03-01T16:01:17;7.90;84.70
42097;DHT22;27754;45.414;11.084;2023-03-01T16:03:44;7.80;84.90
42097;DHT22;27754;45.414;11.084;2023-03-01T16:06:12;7.70;84.60
42097;DHT22;27754;45.414;11.084;2023-03-01T16:08:40;7.70;85.10
42097;DHT22;27754;45.414;11.084;2023-03-01T16:11:15;7.60;84.90
42097;DHT22;27754;45.414;11.084;2023-03-01T16:13:43;7.60;85.30
42097;DHT22;27754;45.414;11.084;2023-03-01T16:16:11;7.60;85.50
42097;DHT22;27754;45.414;11.084;2023-03-01T16:18:45;7.50;85.80
42097;DHT22;27754;45.414;11.084;2023-03-01T16:21:14;7.40;86.30
42097;DHT22;27754;45.414;11.084;2023-03-01T16:23:43;7.40;86.60
42097;DHT22;27754;45.414;11.084;2023-03-01T16:26:10;7.40;86.80
42097;DHT22;27754;45.414;11.084;2023-03-01T16:28:37;7.40;86.80
42097;DHT22;27754;45.414;11.084;2023-03-01T16:31:04;7.40;86.60
42097;DHT22;27754;45.414;11.084;2023-03-01T16:33:32;7.30;87.00
42097;DHT22;27754;45.414;11.084;2023-03-01T16:36:06;7.20;87.30
42097;DHT22;27754;45.414;11.084;2023-03-01T16:38:33;7.20;87.30
42097;DHT22;27754;45.414;11.084;2023-03-01T16:41:01;7.20;87.50
42097;DHT22;27754;45.414;11.084;2023-03-01T16:43:29;7.20;87.70
42097;DHT22;27754;45.414;11.084;2023-03-01T16:45:56;7.20;87.80
42097;DHT22;27754;45.414;11.084;2023-03-01T16:48:25;7.20;87.90
42097;DHT22;27754;45.414;11.084;2023-03-01T16:51:00;7.20;87.80
42097;DHT22;27754;45.414;11.084;2023-03-01T16:53:27;7.10;87.80
42097;DHT22;27754;45.414;11.084;2023-03-01T16:55:56;7.10;88.50
42097;DHT22;27754;45.414;11.084;2023-03-01T16:58:24;7.10;88.60
42097;DHT22;27754;45.414;11.084;2023-03-01T17:00:55;7.10;88.30
42097;DHT22;27754;45.414;11.084;2023-03-01T17:03:24;7.10;88.40
42097;DHT22;27754;45.414;11.084;2023-03-01T17:05:52;7.10;88.40
42097;DHT22;27754;45.414;11.084;2023-03-01T17:08:19;7.10;88.80
42097;DHT22;27754;45.414;11.084;2023-03-01T17:10:46;7.10;88.90
42097;DHT22;27754;45.414;11.084;2023-03-01T17:13:13;7.00;89.30
42097;DHT22;27754;45.414;11.084;2023-03-01T17:15:41;7.00;89.30
42097;DHT22;27754;45.414;11.084;2023-03-01T17:18:08;6.90;89.60
42097;DHT22;27754;45.414;11.084;2023-03-01T17:20:36;6.90;89.50
42097;DHT22;27754;45.414;11.084;2023-03-01T17:23:03;6.90;89.30
42097;DHT22;27754;45.414;11.084;2023-03-01T17:25:30;6.90;88.60
42097;DHT22;27754;45.414;11.084;2023-03-01T17:27:57;6.90;88.30
42097;DHT22;27754;45.414;11.084;2023-03-01T17:30:24;6.90;88.30
42097;DHT22;27754;45.414;11.084;2023-03-01T17:32:51;7.00;88.00
42097;DHT22;27754;45.414;11.084;2023-03-01T17:35:21;6.90;88.60
42097;DHT22;27754;45.414;11.084;2023-03-01T17:37:48;6.90;87.80
42097;DHT22;27754;45.414;11.084;2023-03-01T17:40:15;6.80;86.50
42097;DHT22;27754;45.414;11.084;2023-03-01T17:42:42;6.80;87.00
42097;DHT22;27754;45.414;11.084;2023-03-01T17:45:10;6.80;87.60
42097;DHT22;27754;45.414;11.084;2023-03-01T17:47:37;6.70;86.90
42097;DHT22;27754;45.414;11.084;2023-03-01T17:50:05;6.80;87.20
42097;DHT22;27754;45.414;11.084;2023-03-01T17:52:33;6.70;86.80
42097;DHT22;27754;45.414;11.084;2023-03-01T17:55:00;6.70;87.20
42097;DHT22;27754;45.414;11.084;2023-03-01T17:57:27;6.70;87.20